createdAt,value
2023-03-02T00:02:03.576Z,9.50
2023-03-02T00:04:46.456Z,10.55
2023-03-02T00:07:21.030Z,9.50
2023-03-02T00:09:49.434Z,10.25
2023-03-02T00:12:17.880Z,7.72
2023-03-02T00:14:45.979Z,8.52
2023-03-02T00:17:14.416Z,7.68
2023-03-02T00:19:42.424Z,8.18
2023-03-02T00:22:11.834Z,8.55
2023-03-02T00:24:39.706Z,9.82
2023-03-02T00:27:07.837Z,9.27
2023-03-02T00:29:35.852Z,10.57
2023-03-02T00:32:04.190Z,8.80
2023-03-02T00:34:32.541Z,9.35
2023-03-02T00:37:00.535Z,8.52
2023-03-02T00:39:28.609Z,7.35
2023-03-02T00:41:56.796Z,7.63
2023-03-02T00:44:24.896Z,12.55
2023-03-02T00:46:53.829Z,12.25
2023-03-02T00:49:22.617Z,11.52
2023-03-02T00:51:51.330Z,13.02
2023-03-02T00:54:19.361Z,12.38
2023-03-02T00:56:48.037Z,15.23
2023-03-02T00:59:27.979Z,13.13
2023-03-02T01:02:17.597Z,10.45
2023-03-02T01:04:46.986Z,17.95
2023-03-02T01:07:41.471Z,14.60
2023-03-02T01:10:10.461Z,14.93
2023-03-02T01:12:39.196Z,12.45
2023-03-02T01:15:10.014Z,13.75
2023-03-02T01:17:41.390Z,12.32
2023-03-02T01:20:11.078Z,11.43
2023-03-02T01:22:39.406Z,14.38
2023-03-02T01:25:08.062Z,16.13
2023-03-02T01:27:36.152Z,12.85
2023-03-02T01:30:04.516Z,14.20
2023-03-02T01:32:33.107Z,10.85
2023-03-02T01:35:01.615Z,12.70
2023-03-02T01:37:31.589Z,13.82
2023-03-02T01:39:59.547Z,14.75
2023-03-02T01:42:27.625Z,14.75
2023-03-02T01:44:57.355Z,16.23
2023-03-02T01:47:38.945Z,14.05
2023-03-02T01:50:28.990Z,18.15
2023-03-02T01:53:00.643Z,19.67
2023-03-02T01:55:32.360Z,15.73
2023-03-02T01:58:03.274Z,16.65
2023-03-02T02:00:37.077Z,14.05
2023-03-02T02:03:12.863Z,17.10
2023-03-02T02:05:44.142Z,14.95
2023-03-02T02:08:12.857Z,15.25
2023-03-02T02:10:41.584Z,15.45
2023-03-02T02:13:11.138Z,10.05
2023-03-02T02:15:40.507Z,11.15
2023-03-02T02:18:09.908Z,13.52
2023-03-02T02:20:46.021Z,9.27
2023-03-02T02:23:51.581Z,12.57
2023-03-02T02:26:49.042Z,10.43
2023-03-02T02:29:34.565Z,9.05
2023-03-02T02:32:24.412Z,10.82
2023-03-02T02:35:05.320Z,7.38
2023-03-02T02:37:47.521Z,8.15
2023-03-02T02:40:23.252Z,8.88
2023-03-02T02:42:53.511Z,9.57
2023-03-02T02:45:27.078Z,8.35
2023-03-02T02:47:57.371Z,6.78
2023-03-02T02:50:35.519Z,8.15
2023-03-02T02:53:07.847Z,10.30
2023-03-02T02:55:36.088Z,8.63
2023-03-02T02:58:28.741Z,6.85
2023-03-02T03:00:57.032Z,6.95
2023-03-02T03:03:30.996Z,8.20
2023-03-02T03:06:08.144Z,10.85
2023-03-02T03:08:52.313Z,9.63
2023-03-02T03:11:39.045Z,7.45
2023-03-02T03:14:12.003Z,8.02
2023-03-02T03:16:42.934Z,6.60
2023-03-02T03:19:20.206Z,8.68
2023-03-02T03:21:52.077Z,6.35
2023-03-02T03:24:21.488Z,6.40
2023-03-02T03:26:50.274Z,9.35
2023-03-02T03:29:20.177Z,8.23
2023-03-02T03:31:49.437Z,13.10
2023-03-02T03:34:17.966Z,8.02
2023-03-02T03:36:46.418Z,5.55
2023-03-02T03:39:16.029Z,6.70
2023-03-02T03:41:45.109Z,8.85
2023-03-02T03:44:14.270Z,7.53
2023-03-02T03:46:44.335Z,8.57
2023-03-02T03:49:12.885Z,8.27
2023-03-02T03:51:41.048Z,8.07
2023-03-02T03:54:10.409Z,8.50
2023-03-02T03:56:49.672Z,11.63
2023-03-02T03:59:21.403Z,6.78
2023-03-02T04:01:59.785Z,9.07
2023-03-02T04:04:36.181Z,9.68
2023-03-02T04:07:14.542Z,9.45
2023-03-02T04:09:44.108Z,8.95
2023-03-02T04:12:14.108Z,9.02
2023-03-02T04:14:47.496Z,7.13
2023-03-02T04:17:16.085Z,8.00
2023-03-02T04:19:46.535Z,6.38
2023-03-02T04:22:15.815Z,7.55
2023-03-02T04:24:44.086Z,6.75
2023-03-02T04:27:13.732Z,8.15
2023-03-02T04:29:44.923Z,9.45
2023-03-02T04:32:15.000Z,9.38
2023-03-02T04:34:46.408Z,5.80
2023-03-02T04:37:16.091Z,8.43
2023-03-02T04:39:47.470Z,7.07
2023-03-02T04:42:16.054Z,6.55
2023-03-02T04:44:44.514Z,5.82
2023-03-02T04:47:12.789Z,6.60
2023-03-02T04:49:41.307Z,8.00
2023-03-02T04:52:09.332Z,7.20
2023-03-02T04:54:38.075Z,5.63
2023-03-02T04:57:08.602Z,5.03
2023-03-02T04:59:37.098Z,7.05
2023-03-02T05:02:05.539Z,7.43
2023-03-02T05:04:34.147Z,6.22
2023-03-02T05:07:04.519Z,6.35
2023-03-02T05:09:32.986Z,7.50
2023-03-02T05:12:02.066Z,5.00
2023-03-02T05:14:30.633Z,5.55
2023-03-02T05:16:58.811Z,5.38
2023-03-02T05:19:27.032Z,7.00
2023-03-02T05:21:56.598Z,6.72
2023-03-02T05:24:24.825Z,7.93
2023-03-02T05:26:53.832Z,8.82
2023-03-02T05:29:21.855Z,7.28
2023-03-02T05:31:50.586Z,8.73
2023-03-02T05:34:19.032Z,8.73
2023-03-02T05:36:47.568Z,9.07
2023-03-02T05:39:15.948Z,7.63
2023-03-02T05:41:44.027Z,11.35
2023-03-02T05:44:13.031Z,13.43
2023-03-02T05:46:41.352Z,8.32
2023-03-02T05:49:10.689Z,9.57
2023-03-02T05:51:39.110Z,7.47
2023-03-02T05:54:07.748Z,10.10
2023-03-02T05:56:36.205Z,12.95
2023-03-02T05:59:04.290Z,9.93
2023-03-02T06:01:33.099Z,14.20
2023-03-02T06:04:01.757Z,11.05
2023-03-02T06:06:30.279Z,12.35
2023-03-02T06:08:59.298Z,9.85
2023-03-02T06:11:30.309Z,11.05
2023-03-02T06:13:58.566Z,14.40
2023-03-02T06:16:26.671Z,13.20
2023-03-02T06:18:54.653Z,12.93
2023-03-02T06:21:22.790Z,14.52
2023-03-02T06:23:51.277Z,13.98
2023-03-02T06:26:19.822Z,15.38
2023-03-02T06:28:53.180Z,13.82
2023-03-02T06:31:22.616Z,10.15
2023-03-02T06:33:50.790Z,7.97
2023-03-02T06:36:19.534Z,8.38
2023-03-02T06:38:47.599Z,7.80
2023-03-02T06:41:16.443Z,5.65
2023-03-02T06:43:44.926Z,6.60
2023-03-02T06:46:13.371Z,8.23
2023-03-02T06:48:42.103Z,8.77
2023-03-02T06:51:10.860Z,5.82
2023-03-02T06:53:38.924Z,9.85
2023-03-02T06:56:07.927Z,10.00
2023-03-02T06:58:37.258Z,14.85
2023-03-02T07:01:07.982Z,11.05
2023-03-02T07:03:37.079Z,6.68
2023-03-02T07:06:05.666Z,6.90
2023-03-02T07:08:33.729Z,7.07
2023-03-02T07:11:09.260Z,8.00
2023-03-02T07:13:38.979Z,9.50
2023-03-02T07:16:12.747Z,6.97
2023-03-02T07:21:09.083Z,5.78
2023-03-02T07:23:37.224Z,5.30
2023-03-02T07:26:08.727Z,6.60
2023-03-02T07:28:39.679Z,7.60
2023-03-02T07:31:09.047Z,5.28
2023-03-02T07:33:38.317Z,4.43
2023-03-02T07:36:08.627Z,6.13
2023-03-02T07:38:38.293Z,6.20
2023-03-02T07:41:10.260Z,5.15
2023-03-02T07:43:39.194Z,5.28
2023-03-02T07:46:07.500Z,7.28
2023-03-02T07:48:37.519Z,6.00
2023-03-02T07:51:07.945Z,5.25
2023-03-02T07:53:35.973Z,5.25
2023-03-02T07:56:09.365Z,4.65
2023-03-02T08:01:06.104Z,4.30
2023-03-02T08:03:34.302Z,4.32
2023-03-02T08:06:11.631Z,7.63
2023-03-02T08:08:39.742Z,5.30
2023-03-02T08:11:14.215Z,7.55
2023-03-02T08:13:43.080Z,6.45
2023-03-02T08:16:14.651Z,6.43
2023-03-02T08:18:43.157Z,6.90
2023-03-02T08:21:14.604Z,5.55
2023-03-02T08:23:42.852Z,4.30
2023-03-02T08:26:13.871Z,5.30
2023-03-02T08:28:43.293Z,5.97
2023-03-02T08:31:11.484Z,6.82
2023-03-02T08:33:39.604Z,7.55
2023-03-02T08:36:11.542Z,13.30
2023-03-02T08:38:39.946Z,9.68
2023-03-02T08:41:11.776Z,6.40
2023-03-02T08:43:40.145Z,8.93
2023-03-02T08:46:09.220Z,6.55
2023-03-02T08:48:37.358Z,8.60
2023-03-02T08:51:08.597Z,6.70
2023-03-02T08:53:40.389Z,6.95
2023-03-02T08:56:36.232Z,10.95
2023-03-02T08:59:07.092Z,6.70
2023-03-02T09:01:37.704Z,6.82
2023-03-02T09:04:08.241Z,8.35
2023-03-02T09:06:42.683Z,8.00
2023-03-02T09:09:12.573Z,8.25
2023-03-02T09:11:42.554Z,7.15
2023-03-02T09:14:10.898Z,6.93
2023-03-02T09:16:40.280Z,5.47
2023-03-02T09:19:10.064Z,4.97
2023-03-02T09:21:38.008Z,5.45
2023-03-02T09:24:06.387Z,6.45
2023-03-02T09:26:35.122Z,6.70
2023-03-02T09:29:04.158Z,5.00
2023-03-02T09:31:33.546Z,2.78
2023-03-02T09:34:01.846Z,9.00
2023-03-02T09:36:32.784Z,6.57
2023-03-02T09:39:00.885Z,9.13
2023-03-02T09:41:59.754Z,5.30
2023-03-02T09:45:01.407Z,5.50
2023-03-02T09:47:39.858Z,6.37
2023-03-02T09:50:20.845Z,9.65
2023-03-02T09:53:20.261Z,5.30
2023-03-02T09:55:54.906Z,7.15
2023-03-02T09:58:26.529Z,7.97
2023-03-02T10:00:55.373Z,6.60
2023-03-02T10:03:32.182Z,6.90
2023-03-02T10:06:00.796Z,7.03
2023-03-02T10:08:34.401Z,5.72
2023-03-02T10:11:43.907Z,5.55
2023-03-02T10:14:30.135Z,4.47
2023-03-02T10:17:06.496Z,4.93
2023-03-02T10:19:44.559Z,5.38
2023-03-02T10:22:17.272Z,5.40
2023-03-02T10:24:48.692Z,3.67
2023-03-02T10:27:24.703Z,7.22
2023-03-02T10:30:07.397Z,5.03
2023-03-02T10:32:51.801Z,6.97
2023-03-02T10:35:26.244Z,5.20
2023-03-02T10:38:00.332Z,5.03
2023-03-02T10:40:44.490Z,4.70
2023-03-02T10:43:25.132Z,5.80
2023-03-02T10:46:19.502Z,5.63
2023-03-02T10:48:56.400Z,5.35
2023-03-02T10:51:30.070Z,6.32
2023-03-02T10:54:11.682Z,5.15
2023-03-02T10:56:43.061Z,9.20
2023-03-02T10:59:43.735Z,4.10
2023-03-02T11:02:23.490Z,11.60
2023-03-02T11:05:19.931Z,6.88
2023-03-02T11:07:58.405Z,5.63
2023-03-02T11:10:34.293Z,3.35
2023-03-02T11:13:03.798Z,6.65
2023-03-02T11:15:46.748Z,4.95
2023-03-02T11:18:38.241Z,6.85
2023-03-02T11:21:24.815Z,6.90
2023-03-02T11:24:04.932Z,7.88
2023-03-02T11:26:50.306Z,4.22
2023-03-02T11:29:41.237Z,7.03
2023-03-02T11:32:09.789Z,7.63
2023-03-02T11:34:51.968Z,5.50
2023-03-02T11:37:24.039Z,3.92
2023-03-02T11:39:55.797Z,4.93
2023-03-02T11:42:34.671Z,5.22
2023-03-02T11:45:10.025Z,6.20
2023-03-02T11:47:38.749Z,5.75
2023-03-02T11:50:10.738Z,9.95
2023-03-02T11:52:44.606Z,7.00
2023-03-02T11:55:13.325Z,7.85
2023-03-02T11:57:50.887Z,8.40
2023-03-02T12:00:34.741Z,10.15
2023-03-02T12:03:19.364Z,8.25
2023-03-02T12:06:25.285Z,7.82
2023-03-02T12:09:07.323Z,8.55
2023-03-02T12:11:38.990Z,9.25
2023-03-02T12:14:35.555Z,11.65
2023-03-02T12:17:23.390Z,9.48
2023-03-02T12:20:08.682Z,6.55
2023-03-02T12:22:37.973Z,8.07
2023-03-02T12:25:20.375Z,8.77
2023-03-02T12:27:51.216Z,6.45
2023-03-02T12:30:26.685Z,8.82
2023-03-02T12:33:05.643Z,3.63
2023-03-02T12:35:34.824Z,3.78
2023-03-02T12:38:25.946Z,4.00
2023-03-02T12:41:39.077Z,3.83
2023-03-02T12:44:34.715Z,3.88
2023-03-02T12:47:04.150Z,2.80
2023-03-02T12:50:00.159Z,2.42
2023-03-02T12:52:36.195Z,3.90
2023-03-02T12:55:07.357Z,35.10
2023-03-02T12:57:39.368Z,7.60
2023-03-02T13:00:17.308Z,8.30
2023-03-02T13:02:48.882Z,4.97
2023-03-02T13:05:29.567Z,7.18
2023-03-02T13:08:07.582Z,7.22
2023-03-02T13:10:44.525Z,5.93
2023-03-02T13:13:34.876Z,8.75
2023-03-02T13:16:30.034Z,9.23
2023-03-02T13:19:03.730Z,10.45
2023-03-02T13:21:38.685Z,8.70
2023-03-02T13:24:34.538Z,7.78
2023-03-02T13:27:08.455Z,4.63
2023-03-02T13:29:42.348Z,5.20
2023-03-02T13:32:35.234Z,7.68
2023-03-02T13:35:05.014Z,4.97
2023-03-02T13:37:40.790Z,33.10
2023-03-02T13:40:51.517Z,12.02
2023-03-02T13:43:35.790Z,10.00
2023-03-02T13:46:11.304Z,6.07
2023-03-02T13:48:39.423Z,6.55
2023-03-02T13:51:21.142Z,7.70
2023-03-02T13:53:56.840Z,6.90
2023-03-02T13:56:38.205Z,7.55
2023-03-02T13:59:15.369Z,5.93
2023-03-02T14:01:46.452Z,7.00
2023-03-02T14:04:17.949Z,7.35
2023-03-02T14:06:46.680Z,8.02
2023-03-02T14:09:15.159Z,6.90
2023-03-02T14:11:48.354Z,6.78
2023-03-02T14:14:23.446Z,8.88
2023-03-02T14:16:51.729Z,6.30
2023-03-02T14:19:20.265Z,7.45
2023-03-02T14:21:48.901Z,9.45
2023-03-02T14:24:17.039Z,7.20
2023-03-02T14:26:48.073Z,5.78
2023-03-02T14:29:38.178Z,5.57
2023-03-02T14:32:08.960Z,5.93
2023-03-02T14:34:37.664Z,4.80
2023-03-02T14:37:18.553Z,6.53
2023-03-02T14:39:53.406Z,6.18
2023-03-02T14:42:23.046Z,7.30
2023-03-02T14:44:52.272Z,14.80
2023-03-02T14:47:21.880Z,9.07
2023-03-02T14:49:50.003Z,10.43
2023-03-02T14:52:43.333Z,11.88
2023-03-02T14:55:27.302Z,7.65
2023-03-02T14:58:00.971Z,7.35
2023-03-02T15:00:29.334Z,13.73
2023-03-02T15:02:59.265Z,31.45
2023-03-02T15:05:27.413Z,21.15
2023-03-02T15:07:58.669Z,14.05
2023-03-02T15:10:27.647Z,17.48
2023-03-02T15:12:55.655Z,15.30
2023-03-02T15:15:25.165Z,16.63
2023-03-02T15:17:53.438Z,21.92
2023-03-02T15:20:21.890Z,17.65
2023-03-02T15:22:50.430Z,53.08
2023-03-02T15:25:18.453Z,25.02
2023-03-02T15:27:46.480Z,29.60
2023-03-02T15:30:15.028Z,24.75
2023-03-02T15:32:43.653Z,4.30
2023-03-02T15:35:14.778Z,3.35
2023-03-02T15:37:42.884Z,3.63
2023-03-02T15:40:12.038Z,6.28
2023-03-02T15:42:40.408Z,13.20
2023-03-02T15:45:09.406Z,11.30
2023-03-02T15:47:38.152Z,12.30
2023-03-02T15:50:06.621Z,10.98
2023-03-02T15:52:34.647Z,14.48
2023-03-02T15:55:02.739Z,12.40
2023-03-02T15:57:31.020Z,15.70
2023-03-02T15:59:58.974Z,11.23
2023-03-02T16:02:26.859Z,9.15
2023-03-02T16:04:55.466Z,12.48
2023-03-02T16:07:23.565Z,10.48
2023-03-02T16:09:52.155Z,11.13
2023-03-02T16:12:23.484Z,8.45
2023-03-02T16:14:51.526Z,7.45
2023-03-02T16:20:24.085Z,9.00
2023-03-02T16:22:52.519Z,8.93
2023-03-02T16:25:21.972Z,7.72
2023-03-02T16:27:50.713Z,6.95
2023-03-02T16:30:23.041Z,8.43
2023-03-02T16:32:52.094Z,9.80
2023-03-02T16:35:22.908Z,9.40
2023-03-02T16:37:52.085Z,13.07
2023-03-02T16:40:21.078Z,13.60
2023-03-02T16:42:51.208Z,13.23
2023-03-02T16:45:20.302Z,12.38
2023-03-02T16:47:52.186Z,16.52
2023-03-02T16:50:20.685Z,14.32
2023-03-02T16:52:48.916Z,14.68
2023-03-02T16:55:20.360Z,17.80
2023-03-02T16:57:48.688Z,19.00
2023-03-02T17:00:18.571Z,18.70
2023-03-02T17:02:47.456Z,22.77
2023-03-02T17:05:16.940Z,19.05
2023-03-02T17:07:45.877Z,25.63
2023-03-02T17:13:54.718Z,40.42
2023-03-02T17:16:25.104Z,39.65
2023-03-02T17:18:54.313Z,43.15
2023-03-02T17:21:24.616Z,41.72
2023-03-02T17:23:56.694Z,33.47
2023-03-02T17:26:50.934Z,30.40
2023-03-02T17:29:19.161Z,66.63
2023-03-02T17:31:47.163Z,68.97
2023-03-02T17:34:15.547Z,46.50
2023-03-02T17:36:44.009Z,33.75
2023-03-02T17:39:12.093Z,30.20
2023-03-02T17:41:40.544Z,23.25
2023-03-02T17:44:08.508Z,17.95
2023-03-02T17:46:36.580Z,39.40
2023-03-02T17:49:05.226Z,34.38
2023-03-02T17:51:34.462Z,42.22
2023-03-02T17:54:02.491Z,32.97
2023-03-02T17:56:31.095Z,32.90
2023-03-02T17:59:02.214Z,34.88
2023-03-02T18:01:34.430Z,31.05
2023-03-02T18:04:02.515Z,32.83
2023-03-02T18:06:30.865Z,36.28
2023-03-02T18:08:59.353Z,33.35
2023-03-02T18:11:28.207Z,31.38
2023-03-02T18:13:58.129Z,31.73
2023-03-02T18:16:34.085Z,30.70
2023-03-02T18:19:37.014Z,36.80
2023-03-02T18:22:05.503Z,35.78
2023-03-02T18:24:34.124Z,47.40
2023-03-02T18:27:02.764Z,38.13
2023-03-02T18:29:31.049Z,33.83
2023-03-02T18:32:00.625Z,28.13
2023-03-02T18:34:28.620Z,33.47
2023-03-02T18:36:57.366Z,34.97
2023-03-02T18:39:25.932Z,36.30
2023-03-02T18:41:53.920Z,44.40
2023-03-02T18:44:27.938Z,27.60
2023-03-02T18:46:56.616Z,38.08
2023-03-02T18:49:25.279Z,38.20
2023-03-02T18:51:55.225Z,59.72
2023-03-02T18:54:24.138Z,87.25
2023-03-02T18:56:52.537Z,89.45
2023-03-02T18:59:21.177Z,65.30
2023-03-02T19:01:50.355Z,87.95
2023-03-02T19:04:18.487Z,110.68
2023-03-02T19:06:46.514Z,65.47
2023-03-02T19:09:14.568Z,63.50
2023-03-02T19:11:42.630Z,68.28
2023-03-02T19:14:10.742Z,65.22
2023-03-02T19:16:39.056Z,66.15
2023-03-02T19:19:07.040Z,26.58
2023-03-02T19:21:35.748Z,21.73
2023-03-02T19:24:04.444Z,20.50
2023-03-02T19:26:33.032Z,34.28
2023-03-02T19:29:01.015Z,40.70
2023-03-02T19:31:30.500Z,35.17
2023-03-02T19:33:59.163Z,35.58
2023-03-02T19:36:27.840Z,33.97
2023-03-02T19:38:56.051Z,18.98
2023-03-02T19:41:25.381Z,26.00
2023-03-02T19:43:53.494Z,15.25
2023-03-02T19:47:06.604Z,13.35
2023-03-02T19:49:34.953Z,12.95
2023-03-02T19:52:09.254Z,11.45
2023-03-02T19:54:38.566Z,16.50
2023-03-02T19:57:10.470Z,19.13
2023-03-02T19:59:53.203Z,20.38
2023-03-02T20:02:21.198Z,20.20
2023-03-02T20:04:51.024Z,22.35
2023-03-02T20:07:19.554Z,28.58
2023-03-02T20:09:48.356Z,29.65
2023-03-02T20:12:16.568Z,32.13
2023-03-02T20:14:49.338Z,27.00
2023-03-02T20:17:17.880Z,19.17
2023-03-02T20:19:48.497Z,17.73
2023-03-02T20:22:16.808Z,15.32
2023-03-02T20:24:44.837Z,13.02
2023-03-02T20:27:13.482Z,20.55
2023-03-02T20:29:43.426Z,69.20
2023-03-02T20:32:13.186Z,16.73
2023-03-02T20:34:43.212Z,12.02
2023-03-02T20:37:15.094Z,12.50
2023-03-02T20:39:48.052Z,12.48
2023-03-02T20:42:16.247Z,10.30
2023-03-02T20:44:46.446Z,11.93
2023-03-02T20:47:17.068Z,11.30
2023-03-02T20:49:45.195Z,18.55
2023-03-02T20:52:13.369Z,11.93
2023-03-02T20:54:43.627Z,11.43
2023-03-02T20:57:16.813Z,8.55
2023-03-02T20:59:46.059Z,8.15
2023-03-02T21:02:16.387Z,6.53
2023-03-02T21:04:44.780Z,6.90
2023-03-02T21:07:13.343Z,11.48
2023-03-02T21:09:41.794Z,14.32
2023-03-02T21:12:11.961Z,12.48
2023-03-02T21:14:40.726Z,12.85
2023-03-02T21:17:09.629Z,9.13
2023-03-02T21:19:37.642Z,12.90
2023-03-02T21:22:06.235Z,17.77
2023-03-02T21:24:34.308Z,15.07
2023-03-02T21:27:03.208Z,13.10
2023-03-02T21:29:31.221Z,15.80
2023-03-02T21:32:00.186Z,10.27
2023-03-02T21:34:28.914Z,13.10
2023-03-02T21:36:57.910Z,12.70
2023-03-02T21:39:26.343Z,10.52
2023-03-02T21:41:54.530Z,6.18
2023-03-02T21:44:23.278Z,6.28
2023-03-02T21:46:51.824Z,7.15
2023-03-02T21:49:21.794Z,9.50
2023-03-02T21:51:50.682Z,11.05
2023-03-02T21:54:19.231Z,12.18
2023-03-02T21:56:47.617Z,14.05
2023-03-02T21:59:16.250Z,14.40
2023-03-02T22:01:44.350Z,13.13
2023-03-02T22:04:12.678Z,11.93
2023-03-02T22:06:40.678Z,12.18
2023-03-02T22:09:09.222Z,8.93
2023-03-02T22:11:38.447Z,9.63
2023-03-02T22:14:15.567Z,7.00
2023-03-02T22:16:47.355Z,9.25
2023-03-02T22:19:32.991Z,9.13
2023-03-02T22:22:05.632Z,11.75
2023-03-02T22:24:34.212Z,17.20
2023-03-02T22:27:05.744Z,13.50
2023-03-02T22:29:43.181Z,14.32
2023-03-02T22:32:22.079Z,13.43
2023-03-02T22:34:55.673Z,9.82
2023-03-02T22:40:34.726Z,9.85
2023-03-02T22:43:14.603Z,7.93
2023-03-02T22:45:42.906Z,7.55
2023-03-02T22:48:14.973Z,12.80
2023-03-02T22:50:45.637Z,12.13
2023-03-02T22:53:29.623Z,12.45
2023-03-02T22:56:00.575Z,12.00
2023-03-02T22:58:56.560Z,11.80
2023-03-02T23:01:42.571Z,6.80
2023-03-02T23:04:11.180Z,6.30
2023-03-02T23:07:32.153Z,7.93
2023-03-02T23:10:00.127Z,5.32
2023-03-02T23:12:28.526Z,5.80
2023-03-02T23:14:58.168Z,7.07
2023-03-02T23:17:36.538Z,4.80
2023-03-02T23:20:08.762Z,5.78
2023-03-02T23:22:37.123Z,5.82
2023-03-02T23:25:06.555Z,3.92
2023-03-02T23:27:35.579Z,6.63
2023-03-02T23:30:06.215Z,11.82
2023-03-02T23:32:35.127Z,10.52
2023-03-02T23:35:03.211Z,7.43
2023-03-02T23:37:32.588Z,9.52
2023-03-02T23:40:00.711Z,8.48
2023-03-02T23:42:28.744Z,8.30
2023-03-02T23:44:57.597Z,10.77
2023-03-02T23:47:25.812Z,12.27
2023-03-02T23:49:53.790Z,10.68
2023-03-02T23:52:22.113Z,10.60
2023-03-02T23:54:51.482Z,11.10
2023-03-02T23:57:19.609Z,9.85
2023-03-02T23:59:48.349Z,10.85
